createdAt,value
2022-11-19T00:02:05.909Z,19.10
2022-11-19T00:04:33.948Z,18.62
2022-11-19T00:07:01.835Z,17.12
2022-11-19T00:09:29.837Z,17.40
2022-11-19T00:12:16.434Z,18.92
2022-11-19T00:14:47.358Z,20.73
2022-11-19T00:17:15.541Z,20.10
2022-11-19T00:19:43.303Z,19.17
2022-11-19T00:22:11.461Z,19.00
2022-11-19T00:24:42.526Z,14.80
2022-11-19T00:27:10.346Z,15.75
2022-11-19T00:29:38.141Z,18.55
2022-11-19T00:32:06.390Z,16.77
2022-11-19T00:34:34.168Z,25.20
2022-11-19T00:37:01.983Z,18.05
2022-11-19T00:39:30.145Z,20.90
2022-11-19T00:41:57.875Z,21.62
2022-11-19T00:44:25.724Z,18.52
2022-11-19T00:46:57.141Z,17.70
2022-11-19T00:49:25.029Z,18.40
2022-11-19T00:51:53.977Z,21.42
2022-11-19T00:54:21.940Z,22.13
2022-11-19T00:56:49.737Z,21.17
2022-11-19T00:59:18.109Z,17.10
2022-11-19T01:01:46.002Z,19.00
2022-11-19T01:04:16.797Z,18.33
2022-11-19T01:06:45.049Z,16.15
2022-11-19T01:09:16.058Z,17.10
2022-11-19T01:11:43.939Z,19.02
2022-11-19T01:14:12.174Z,23.95
2022-11-19T01:16:41.402Z,19.58
2022-11-19T01:19:11.157Z,25.30
2022-11-19T01:21:39.322Z,17.75
2022-11-19T01:24:07.507Z,23.25
2022-11-19T01:26:35.373Z,19.12
2022-11-19T01:29:03.565Z,20.25
2022-11-19T01:31:31.434Z,19.62
2022-11-19T01:34:00.130Z,20.20
2022-11-19T01:36:31.718Z,22.15
2022-11-19T01:38:59.663Z,20.58
2022-11-19T01:41:33.400Z,24.30
2022-11-19T01:44:07.875Z,24.73
2022-11-19T01:46:38.735Z,24.15
2022-11-19T01:49:13.416Z,20.67
2022-11-19T01:52:03.383Z,26.02
2022-11-19T01:54:41.413Z,22.55
2022-11-19T01:57:15.523Z,22.98
2022-11-19T01:59:47.357Z,23.87
2022-11-19T02:02:15.830Z,26.52
2022-11-19T02:04:47.831Z,28.92
2022-11-19T02:07:16.471Z,28.83
2022-11-19T02:09:45.363Z,30.55
2022-11-19T02:12:25.226Z,28.12
2022-11-19T02:15:11.327Z,26.08
2022-11-19T02:18:05.758Z,25.30
2022-11-19T02:20:44.269Z,28.90
2022-11-19T02:23:43.311Z,31.23
2022-11-19T02:26:50.040Z,22.45
2022-11-19T02:29:29.915Z,18.62
2022-11-19T02:32:18.611Z,19.27
2022-11-19T02:35:06.848Z,20.12
2022-11-19T02:37:56.313Z,17.42
2022-11-19T02:40:34.354Z,19.95
2022-11-19T02:43:36.547Z,18.67
2022-11-19T02:46:14.076Z,20.25
2022-11-19T02:48:52.935Z,19.30
2022-11-19T02:51:23.761Z,19.75
2022-11-19T02:53:51.927Z,16.67
2022-11-19T02:56:51.839Z,18.85
2022-11-19T03:00:07.482Z,15.05
2022-11-19T03:03:01.027Z,19.80
2022-11-19T03:05:34.050Z,20.60
2022-11-19T03:08:01.962Z,23.30
2022-11-19T03:10:42.915Z,21.45
2022-11-19T03:13:40.289Z,18.02
2022-11-19T03:16:35.794Z,16.12
2022-11-19T03:19:20.031Z,17.15
2022-11-19T03:21:56.756Z,17.48
2022-11-19T03:25:05.829Z,18.08
2022-11-19T03:27:47.853Z,15.10
2022-11-19T03:30:18.084Z,16.62
2022-11-19T03:33:29.771Z,18.35
2022-11-19T03:36:04.956Z,18.30
2022-11-19T03:38:37.068Z,14.87
2022-11-19T03:41:07.011Z,18.27
2022-11-19T03:43:40.050Z,20.67
2022-11-19T03:46:13.671Z,19.85
2022-11-19T03:48:46.186Z,18.70
2022-11-19T03:51:20.145Z,14.18
2022-11-19T03:53:49.448Z,17.42
2022-11-19T03:56:22.273Z,14.00
2022-11-19T03:58:50.552Z,19.52
2022-11-19T04:01:18.494Z,16.95
2022-11-19T04:04:06.854Z,13.65
2022-11-19T04:06:34.766Z,16.65
2022-11-19T04:09:02.863Z,22.62
2022-11-19T04:11:30.673Z,18.75
2022-11-19T04:13:58.547Z,20.80
2022-11-19T04:16:30.283Z,21.62
2022-11-19T04:18:58.054Z,17.65
2022-11-19T04:21:29.560Z,16.67
2022-11-19T04:23:57.390Z,21.00
2022-11-19T04:26:25.230Z,18.25
2022-11-19T04:28:53.643Z,19.10
2022-11-19T04:31:21.574Z,17.17
2022-11-19T04:33:49.358Z,14.20
2022-11-19T04:36:17.548Z,14.43
2022-11-19T04:38:45.351Z,15.65
2022-11-19T04:41:13.381Z,19.90
2022-11-19T04:43:41.579Z,16.98
2022-11-19T04:46:09.335Z,15.82
2022-11-19T04:48:37.233Z,18.75
2022-11-19T04:51:08.879Z,14.93
2022-11-19T04:53:36.769Z,20.95
2022-11-19T04:56:04.872Z,15.80
2022-11-19T04:58:36.812Z,15.63
2022-11-19T05:01:05.012Z,13.90
2022-11-19T05:03:33.612Z,17.65
2022-11-19T05:06:01.468Z,17.55
2022-11-19T05:08:29.414Z,19.85
2022-11-19T05:10:57.670Z,19.17
2022-11-19T05:13:25.547Z,15.18
2022-11-19T05:15:53.342Z,18.60
2022-11-19T05:18:21.518Z,16.17
2022-11-19T05:20:52.595Z,14.87
2022-11-19T05:23:20.877Z,16.45
2022-11-19T05:25:49.005Z,14.63
2022-11-19T05:28:16.808Z,16.58
2022-11-19T05:30:44.718Z,14.55
2022-11-19T05:33:12.819Z,16.70
2022-11-19T05:35:40.602Z,21.10
2022-11-19T05:38:08.754Z,29.60
2022-11-19T05:40:37.033Z,20.52
2022-11-19T05:43:08.105Z,23.42
2022-11-19T05:45:36.418Z,26.05
2022-11-19T05:48:04.903Z,21.80
2022-11-19T05:50:32.743Z,23.75
2022-11-19T05:53:06.086Z,24.12
2022-11-19T05:55:34.057Z,31.17
2022-11-19T05:58:01.871Z,26.60
2022-11-19T06:00:30.214Z,24.08
2022-11-19T06:02:58.468Z,24.17
2022-11-19T06:05:26.196Z,38.85
2022-11-19T06:07:53.875Z,35.70
2022-11-19T06:10:21.985Z,37.80
2022-11-19T06:12:49.779Z,29.83
2022-11-19T06:15:17.868Z,25.23
2022-11-19T06:17:45.933Z,28.67
2022-11-19T06:20:13.659Z,25.58
2022-11-19T06:22:41.443Z,29.23
2022-11-19T06:25:09.865Z,31.10
2022-11-19T06:27:37.709Z,27.23
2022-11-19T06:30:06.878Z,22.90
2022-11-19T06:32:35.074Z,22.50
2022-11-19T06:35:02.857Z,22.42
2022-11-19T06:37:30.788Z,23.35
2022-11-19T06:39:58.968Z,25.80
2022-11-19T06:42:39.428Z,22.42
2022-11-19T06:45:13.085Z,26.15
2022-11-19T06:47:42.116Z,18.67
2022-11-19T06:50:11.137Z,18.35
2022-11-19T06:52:39.064Z,21.10
2022-11-19T06:55:10.112Z,21.25
2022-11-19T06:57:39.710Z,23.02
2022-11-19T07:00:08.065Z,24.87
2022-11-19T07:02:35.785Z,28.10
2022-11-19T07:05:04.756Z,21.33
2022-11-19T07:07:32.656Z,20.60
2022-11-19T07:10:00.822Z,16.85
2022-11-19T07:12:34.074Z,23.05
2022-11-19T07:15:04.495Z,18.73
2022-11-19T07:17:33.217Z,19.98
2022-11-19T07:20:01.093Z,21.90
2022-11-19T07:22:31.142Z,23.33
2022-11-19T07:24:59.498Z,21.67
2022-11-19T07:27:27.336Z,26.25
2022-11-19T07:29:55.146Z,19.05
2022-11-19T07:32:27.157Z,16.35
2022-11-19T07:34:58.049Z,18.92
2022-11-19T07:37:29.464Z,19.02
2022-11-19T07:39:57.197Z,18.35
2022-11-19T07:42:46.790Z,15.93
2022-11-19T07:45:15.876Z,22.62
2022-11-19T07:47:43.648Z,15.10
2022-11-19T07:50:12.016Z,19.27
2022-11-19T07:52:40.416Z,19.92
2022-11-19T07:55:08.809Z,17.52
2022-11-19T07:57:39.642Z,15.38
2022-11-19T08:00:08.471Z,15.98
2022-11-19T08:02:40.277Z,18.25
2022-11-19T08:05:08.810Z,18.42
2022-11-19T08:07:39.633Z,18.65
2022-11-19T08:10:08.283Z,19.02
2022-11-19T08:12:36.816Z,16.90
2022-11-19T08:15:04.878Z,18.00
2022-11-19T08:17:51.479Z,17.33
2022-11-19T08:20:19.824Z,15.40
2022-11-19T08:22:47.518Z,16.42
2022-11-19T08:25:15.393Z,17.05
2022-11-19T08:27:43.837Z,17.55
2022-11-19T08:30:11.828Z,17.42
2022-11-19T08:32:42.849Z,16.48
2022-11-19T08:35:11.061Z,16.02
2022-11-19T08:37:38.820Z,15.10
2022-11-19T08:40:07.236Z,15.40
2022-11-19T08:42:53.629Z,16.65
2022-11-19T08:45:22.715Z,18.98
2022-11-19T08:47:50.860Z,14.25
2022-11-19T08:50:19.072Z,14.82
2022-11-19T08:52:46.981Z,13.07
2022-11-19T08:55:15.187Z,15.25
2022-11-19T08:57:42.978Z,14.40
2022-11-19T09:00:11.480Z,12.13
2022-11-19T09:02:39.718Z,12.32
2022-11-19T09:05:11.882Z,14.57
2022-11-19T09:07:45.983Z,14.57
2022-11-19T09:10:13.867Z,15.23
2022-11-19T09:12:45.062Z,9.88
2022-11-19T09:15:13.436Z,10.23
2022-11-19T09:17:46.949Z,11.35
2022-11-19T09:20:19.069Z,10.63
2022-11-19T09:22:46.995Z,10.57
2022-11-19T09:25:15.437Z,10.23
2022-11-19T09:27:43.311Z,9.60
2022-11-19T09:30:11.408Z,10.18
2022-11-19T09:32:39.838Z,12.80
2022-11-19T09:35:08.005Z,14.02
2022-11-19T09:37:38.712Z,13.23
2022-11-19T09:40:08.682Z,9.85
2022-11-19T09:42:57.906Z,11.38
2022-11-19T09:45:30.383Z,8.25
2022-11-19T09:48:13.664Z,9.40
2022-11-19T09:50:53.594Z,10.88
2022-11-19T09:53:24.692Z,9.20
2022-11-19T09:55:54.579Z,8.25
2022-11-19T09:58:38.266Z,11.52
2022-11-19T10:01:06.958Z,12.25
2022-11-19T10:03:35.138Z,8.70
2022-11-19T10:06:12.035Z,11.43
2022-11-19T10:08:55.399Z,10.38
2022-11-19T10:11:44.421Z,12.45
2022-11-19T10:14:49.402Z,11.23
2022-11-19T10:17:26.016Z,9.00
2022-11-19T10:20:12.517Z,13.50
2022-11-19T10:22:57.719Z,9.32
2022-11-19T10:25:38.575Z,13.75
2022-11-19T10:28:19.516Z,8.25
2022-11-19T10:30:55.658Z,8.15
2022-11-19T10:33:35.822Z,8.80
2022-11-19T10:36:14.688Z,13.45
2022-11-19T10:39:01.291Z,6.55
2022-11-19T10:41:43.257Z,10.32
2022-11-19T10:44:40.672Z,7.28
2022-11-19T10:47:22.647Z,11.65
2022-11-19T10:49:54.797Z,7.65
2022-11-19T10:52:38.342Z,6.72
2022-11-19T10:58:19.158Z,8.57
2022-11-19T11:00:47.660Z,7.50
2022-11-19T11:03:23.011Z,6.82
2022-11-19T11:06:05.604Z,4.78
2022-11-19T11:08:34.512Z,8.57
2022-11-19T11:11:05.666Z,9.88
2022-11-19T11:13:57.337Z,8.77
2022-11-19T11:16:47.031Z,14.20
2022-11-19T11:19:20.206Z,11.57
2022-11-19T11:24:22.143Z,9.82
2022-11-19T11:27:24.545Z,10.85
2022-11-19T11:30:15.109Z,9.77
2022-11-19T11:32:43.566Z,7.15
2022-11-19T11:35:34.751Z,7.57
2022-11-19T11:38:03.994Z,7.95
2022-11-19T11:40:32.408Z,5.78
2022-11-19T11:43:00.152Z,9.40
2022-11-19T11:45:33.193Z,7.15
2022-11-19T11:48:19.841Z,7.75
2022-11-19T11:50:48.195Z,7.62
2022-11-19T11:53:28.827Z,6.03
2022-11-19T11:56:03.268Z,9.27
2022-11-19T11:58:35.120Z,6.78
2022-11-19T12:01:20.158Z,5.62
2022-11-19T12:03:59.606Z,9.55
2022-11-19T12:06:40.423Z,8.07
2022-11-19T12:09:29.991Z,7.45
2022-11-19T12:12:09.111Z,8.38
2022-11-19T12:14:37.303Z,4.93
2022-11-19T12:17:35.838Z,7.93
2022-11-19T12:20:04.151Z,6.97
2022-11-19T12:22:57.090Z,6.15
2022-11-19T12:25:46.771Z,6.60
2022-11-19T12:28:39.741Z,8.15
2022-11-19T12:33:56.486Z,9.57
2022-11-19T12:36:39.646Z,7.47
2022-11-19T12:39:39.726Z,5.55
2022-11-19T12:42:30.066Z,8.10
2022-11-19T12:45:17.794Z,8.30
2022-11-19T12:48:10.665Z,8.85
2022-11-19T12:51:04.711Z,10.70
2022-11-19T12:54:07.230Z,7.20
2022-11-19T12:56:46.985Z,8.20
2022-11-19T12:59:52.462Z,9.10
2022-11-19T13:02:41.370Z,8.93
2022-11-19T13:05:37.712Z,7.75
2022-11-19T13:08:12.944Z,6.70
2022-11-19T13:10:45.744Z,8.00
2022-11-19T13:13:17.677Z,7.45
2022-11-19T13:16:03.197Z,4.60
2022-11-19T13:18:34.751Z,5.60
2022-11-19T13:21:16.908Z,7.10
2022-11-19T13:23:48.724Z,9.13
2022-11-19T13:26:32.512Z,7.20
2022-11-19T13:29:05.968Z,6.57
2022-11-19T13:31:53.359Z,5.97
2022-11-19T13:34:38.565Z,8.77
2022-11-19T13:37:16.173Z,4.03
2022-11-19T13:39:52.492Z,5.72
2022-11-19T13:42:41.420Z,10.73
2022-11-19T13:45:16.049Z,7.95
2022-11-19T13:48:00.229Z,5.87
2022-11-19T13:50:39.823Z,8.73
2022-11-19T13:53:42.630Z,8.07
2022-11-19T13:56:15.853Z,9.60
2022-11-19T13:58:49.907Z,8.23
2022-11-19T14:01:28.441Z,6.87
2022-11-19T14:04:14.551Z,5.10
2022-11-19T14:06:50.325Z,8.18
2022-11-19T14:10:02.997Z,5.43
2022-11-19T14:13:09.989Z,8.27
2022-11-19T14:16:18.681Z,8.57
2022-11-19T14:19:08.624Z,8.30
2022-11-19T14:21:58.164Z,6.32
2022-11-19T14:24:44.736Z,6.65
2022-11-19T14:27:29.719Z,9.00
2022-11-19T14:30:19.573Z,8.80
2022-11-19T14:32:52.130Z,5.65
2022-11-19T14:35:23.921Z,7.40
2022-11-19T14:38:50.798Z,9.45
2022-11-19T14:41:30.750Z,8.23
2022-11-19T14:44:15.644Z,9.68
2022-11-19T14:46:47.326Z,7.00
2022-11-19T14:49:32.184Z,9.07
2022-11-19T14:52:01.136Z,10.82
2022-11-19T14:54:45.459Z,7.85
2022-11-19T14:57:28.351Z,7.53
2022-11-19T15:00:04.706Z,7.57
2022-11-19T15:02:32.570Z,10.73
2022-11-19T15:05:19.398Z,10.13
2022-11-19T15:07:56.223Z,6.65
2022-11-19T15:10:30.653Z,8.70
2022-11-19T15:13:26.563Z,7.12
2022-11-19T15:16:17.825Z,7.75
2022-11-19T15:18:45.729Z,8.43
2022-11-19T15:21:29.124Z,8.45
2022-11-19T15:24:15.772Z,9.70
2022-11-19T15:26:49.750Z,7.85
2022-11-19T15:29:23.954Z,8.95
2022-11-19T15:32:19.676Z,8.75
2022-11-19T15:35:09.340Z,11.18
2022-11-19T15:37:49.164Z,8.38
2022-11-19T15:40:21.656Z,4.57
2022-11-19T15:46:01.819Z,8.77
2022-11-19T15:49:21.458Z,8.05
2022-11-19T15:52:04.528Z,10.10
2022-11-19T15:54:34.614Z,11.20
2022-11-19T15:57:04.486Z,9.80
2022-11-19T15:59:39.465Z,10.35
2022-11-19T16:02:19.982Z,10.00
2022-11-19T16:04:51.190Z,9.45
2022-11-19T16:10:19.911Z,9.27
2022-11-19T16:13:13.999Z,11.25
2022-11-19T16:16:11.801Z,8.75
2022-11-19T16:18:50.841Z,11.70
2022-11-19T16:21:27.893Z,9.43
2022-11-19T16:24:14.982Z,8.45
2022-11-19T16:26:44.587Z,9.60
2022-11-19T16:29:22.385Z,10.07
2022-11-19T16:31:56.998Z,8.85
2022-11-19T16:34:29.494Z,11.02
2022-11-19T16:36:58.498Z,7.47
2022-11-19T16:39:32.016Z,11.15
2022-11-19T16:42:20.053Z,6.50
2022-11-19T16:44:50.498Z,10.38
2022-11-19T16:47:38.124Z,17.62
2022-11-19T16:50:27.495Z,9.30
2022-11-19T16:52:56.536Z,9.57
2022-11-19T16:55:24.547Z,10.85
2022-11-19T16:58:11.659Z,12.13
2022-11-19T17:00:41.429Z,9.95
2022-11-19T17:03:21.371Z,14.57
2022-11-19T17:05:52.355Z,12.88
2022-11-19T17:08:24.115Z,8.85
2022-11-19T17:11:33.989Z,7.55
2022-11-19T17:14:23.241Z,10.32
2022-11-19T17:16:53.866Z,9.75
2022-11-19T17:19:33.644Z,10.32
2022-11-19T17:22:14.721Z,8.45
2022-11-19T17:24:44.902Z,11.27
2022-11-19T17:27:28.005Z,7.62
2022-11-19T17:30:02.078Z,9.43
2022-11-19T17:33:01.249Z,7.68
2022-11-19T17:35:46.408Z,7.90
2022-11-19T17:38:30.192Z,9.15
2022-11-19T17:41:01.318Z,6.93
2022-11-19T17:43:58.819Z,7.85
2022-11-19T17:46:29.060Z,6.57
2022-11-19T17:48:57.436Z,7.70
2022-11-19T17:51:26.718Z,7.05
2022-11-19T17:53:56.925Z,6.07
2022-11-19T17:56:29.965Z,6.35
2022-11-19T17:58:59.953Z,5.80
2022-11-19T18:01:28.552Z,8.25
2022-11-19T18:03:56.950Z,8.65
2022-11-19T18:06:24.955Z,6.47
2022-11-19T18:08:52.932Z,7.72
2022-11-19T18:11:26.532Z,5.85
2022-11-19T18:14:10.848Z,6.12
2022-11-19T18:16:42.136Z,5.60
2022-11-19T18:19:13.145Z,5.53
2022-11-19T18:21:43.412Z,9.30
2022-11-19T18:24:12.579Z,7.35
2022-11-19T18:26:40.715Z,8.43
2022-11-19T18:29:09.196Z,7.75
2022-11-19T18:31:44.526Z,6.80
2022-11-19T18:34:23.701Z,9.80
2022-11-19T18:36:51.915Z,7.22
2022-11-19T18:39:20.220Z,5.80
2022-11-19T18:41:49.129Z,4.15
2022-11-19T18:44:33.849Z,5.78
2022-11-19T18:47:11.984Z,5.40
2022-11-19T18:49:40.584Z,7.87
2022-11-19T18:52:12.279Z,8.68
2022-11-19T18:54:40.200Z,8.20
2022-11-19T18:57:10.187Z,6.93
2022-11-19T18:59:38.687Z,7.45
2022-11-19T19:02:07.238Z,5.97
2022-11-19T19:04:35.568Z,7.30
2022-11-19T19:07:03.306Z,7.75
2022-11-19T19:09:31.144Z,8.40
2022-11-19T19:12:17.647Z,8.20
2022-11-19T19:14:47.648Z,7.28
2022-11-19T19:17:16.787Z,6.20
2022-11-19T19:19:45.030Z,8.63
2022-11-19T19:22:16.099Z,5.95
2022-11-19T19:24:44.549Z,5.62
2022-11-19T19:27:12.435Z,6.68
2022-11-19T19:29:40.300Z,4.35
2022-11-19T19:32:08.649Z,8.95
2022-11-19T19:34:37.014Z,7.12
2022-11-19T19:37:05.612Z,8.35
2022-11-19T19:39:33.947Z,7.95
2022-11-19T19:42:01.762Z,5.32
2022-11-19T19:44:29.620Z,8.38
2022-11-19T19:47:00.809Z,6.10
2022-11-19T19:49:28.907Z,9.80
2022-11-19T19:51:57.168Z,8.57
2022-11-19T19:54:25.148Z,9.70
2022-11-19T19:56:53.508Z,7.82
2022-11-19T19:59:22.845Z,5.18
2022-11-19T20:01:51.876Z,6.22
2022-11-19T20:04:20.046Z,7.50
2022-11-19T20:06:48.486Z,7.55
2022-11-19T20:09:19.552Z,6.60
2022-11-19T20:11:47.819Z,7.68
2022-11-19T20:14:15.721Z,6.57
2022-11-19T20:16:43.622Z,5.70
2022-11-19T20:19:15.546Z,5.95
2022-11-19T20:21:43.740Z,8.98
2022-11-19T20:24:13.668Z,11.00
2022-11-19T20:26:42.958Z,8.32
2022-11-19T20:29:13.477Z,8.38
2022-11-19T20:31:46.386Z,8.18
2022-11-19T20:34:15.397Z,8.38
2022-11-19T20:36:44.365Z,8.27
2022-11-19T20:39:12.955Z,7.82
2022-11-19T20:42:02.649Z,6.97
2022-11-19T20:44:30.792Z,6.93
2022-11-19T20:47:02.489Z,9.13
2022-11-19T20:49:35.971Z,7.32
2022-11-19T20:52:04.320Z,5.47
2022-11-19T20:54:32.972Z,10.52
2022-11-19T20:57:01.078Z,6.47
2022-11-19T20:59:29.653Z,7.18
2022-11-19T21:01:58.077Z,8.02
2022-11-19T21:04:28.780Z,6.35
2022-11-19T21:06:57.165Z,10.82
2022-11-19T21:09:25.638Z,13.40
2022-11-19T21:11:53.683Z,8.93
2022-11-19T21:14:21.969Z,9.57
2022-11-19T21:16:49.931Z,6.60
2022-11-19T21:19:18.023Z,9.30
2022-11-19T21:21:46.320Z,9.95
2022-11-19T21:24:17.081Z,6.95
2022-11-19T21:26:45.363Z,7.12
2022-11-19T21:29:13.637Z,9.85
2022-11-19T21:31:50.377Z,7.20
2022-11-19T21:34:20.977Z,8.15
2022-11-19T21:36:49.866Z,13.30
2022-11-19T21:39:19.734Z,7.85
2022-11-19T21:41:48.177Z,8.98
2022-11-19T21:44:21.122Z,8.88
2022-11-19T21:46:50.736Z,6.93
2022-11-19T21:49:22.724Z,11.57
2022-11-19T21:51:51.212Z,7.93
2022-11-19T21:54:19.279Z,6.15
2022-11-19T21:56:47.657Z,6.25
2022-11-19T21:59:15.825Z,6.28
2022-11-19T22:01:43.627Z,8.15
2022-11-19T22:04:15.761Z,9.05
2022-11-19T22:06:43.579Z,6.05
2022-11-19T22:09:11.754Z,5.97
2022-11-19T22:11:39.415Z,6.18
2022-11-19T22:14:09.006Z,8.98
2022-11-19T22:16:39.993Z,10.55
2022-11-19T22:19:14.184Z,10.70
2022-11-19T22:21:42.465Z,7.82
2022-11-19T22:26:58.238Z,10.45
2022-11-19T22:29:26.047Z,10.18
2022-11-19T22:31:53.831Z,10.38
2022-11-19T22:34:21.934Z,9.25
2022-11-19T22:36:50.104Z,9.52
2022-11-19T22:39:18.841Z,8.68
2022-11-19T22:41:47.200Z,7.37
2022-11-19T22:44:15.047Z,8.18
2022-11-19T22:46:42.933Z,8.68
2022-11-19T22:49:11.362Z,7.05
2022-11-19T22:51:39.120Z,8.65
2022-11-19T22:54:16.751Z,9.15
2022-11-19T22:56:44.857Z,8.90
2022-11-19T22:59:12.941Z,12.43
2022-11-19T23:01:40.760Z,10.00
2022-11-19T23:04:15.275Z,11.23
2022-11-19T23:06:43.047Z,7.12
2022-11-19T23:09:11.252Z,10.07
2022-11-19T23:11:57.594Z,8.68
2022-11-19T23:14:25.854Z,10.20
2022-11-19T23:16:53.637Z,8.85
2022-11-19T23:19:21.825Z,6.60
2022-11-19T23:21:50.237Z,8.57
2022-11-19T23:24:17.943Z,6.87
2022-11-19T23:26:45.739Z,9.02
2022-11-19T23:29:16.948Z,12.80
2022-11-19T23:31:44.698Z,7.35
2022-11-19T23:34:12.506Z,6.90
2022-11-19T23:36:41.969Z,9.20
2022-11-19T23:39:15.238Z,9.55
2022-11-19T23:41:44.360Z,9.50
2022-11-19T23:44:12.489Z,8.20
2022-11-19T23:46:40.673Z,14.30
2022-11-19T23:49:08.964Z,10.15
2022-11-19T23:51:40.313Z,10.95
2022-11-19T23:54:08.668Z,9.43
2022-11-19T23:56:36.762Z,7.53
2022-11-19T23:59:05.597Z,7.47
